sensor_id;sensor_type;location;lat;lon;timestamp;pressure;altitude;pressure_sealevel;temperature;humidity
38852;BME280;24605;50.092;9.182;2023-10-19T00:00:30;154643.34;;;10.25;100.00
38852;BME280;24605;50.092;9.182;2023-10-19T00:02:58;154639.44;;;10.23;100.00
38852;BME280;24605;50.092;9.182;2023-10-19T00:05:27;154640.72;;;10.24;100.00
38852;BME280;24605;50.092;9.182;2023-10-19T00:07:55;154651.19;;;10.28;100.00
38852;BME280;24605;50.092;9.182;2023-10-19T00:10:24;154683.81;;;10.41;100.00
38852;BME280;24605;50.092;9.182;2023-10-19T00:12:51;154669.41;;;10.35;100.00
38852;BME280;24605;50.092;9.182;2023-10-19T00:15:25;154698.16;;;10.46;100.00
38852;BME280;24605;50.092;9.182;2023-10-19T00:17:55;154719.00;;;10.55;100.00
38852;BME280;24605;50.092;9.182;2023-10-19T00:20:21;154725.53;;;10.57;100.00
38852;BME280;24605;50.092;9.182;2023-10-19T00:23:00;154689.03;;;10.43;100.00
38852;BME280;24605;50.092;9.182;2023-10-19T00:25:32;154721.63;;;10.56;100.00
38852;BME280;24605;50.092;9.182;2023-10-19T00:27:59;154742.47;;;10.64;100.00
38852;BME280;24605;50.092;9.182;2023-10-19T00:30:29;154746.38;;;10.65;100.00
38852;BME280;24605;50.092;9.182;2023-10-19T00:33:00;154769.84;;;10.75;100.00
38852;BME280;24605;50.092;9.182;2023-10-19T00:35:29;154717.69;;;10.54;100.00
38852;BME280;24605;50.092;9.182;2023-10-19T00:38:01;154722.91;;;10.56;100.00
38852;BME280;24605;50.092;9.182;2023-10-19T00:40:51;154743.75;;;10.64;100.00
38852;BME280;24605;50.092;9.182;2023-10-19T00:43:29;154739.88;;;10.63;100.00
38852;BME280;24605;50.092;9.182;2023-10-19T00:45:58;154732.03;;;10.60;100.00
38852;BME280;24605;50.092;9.182;2023-10-19T00:48:27;154691.66;;;10.44;100.00
38852;BME280;24605;50.092;9.182;2023-10-19T00:50:54;154715.13;;;10.53;100.00
38852;BME280;24605;50.092;9.182;2023-10-19T00:53:33;154730.75;;;10.59;100.00
38852;BME280;24605;50.092;9.182;2023-10-19T00:56:03;154717.69;;;10.54;100.00
38852;BME280;24605;50.092;9.182;2023-10-19T00:58:32;154722.91;;;10.56;100.00
38852;BME280;24605;50.092;9.182;2023-10-19T01:01:02;154733.34;;;10.60;100.00
38852;BME280;24605;50.092;9.182;2023-10-19T01:03:31;154715.13;;;10.53;100.00
38852;BME280;24605;50.092;9.182;2023-10-19T01:06:02;154694.22;;;10.45;100.00
38852;BME280;24605;50.092;9.182;2023-10-19T01:08:36;154712.50;;;10.52;100.00
38852;BME280;24605;50.092;9.182;2023-10-19T01:11:08;154690.31;;;10.43;100.00
38852;BME280;24605;50.092;9.182;2023-10-19T01:13:36;154729.41;;;10.59;100.00
38852;BME280;24605;50.092;9.182;2023-10-19T01:16:03;154713.78;;;10.53;100.00
38852;BME280;24605;50.092;9.182;2023-10-19T01:18:30;154702.06;;;10.48;100.00
38852;BME280;24605;50.092;9.182;2023-10-19T01:20:58;154707.28;;;10.50;100.00
38852;BME280;24605;50.092;9.182;2023-10-19T01:23:29;154691.66;;;10.44;100.00
38852;BME280;24605;50.092;9.182;2023-10-19T01:25:57;154717.69;;;10.54;100.00
38852;BME280;24605;50.092;9.182;2023-10-19T01:28:32;154734.63;;;10.61;100.00
38852;BME280;24605;50.092;9.182;2023-10-19T01:31:09;154730.75;;;10.59;100.00
38852;BME280;24605;50.092;9.182;2023-10-19T01:33:40;154741.16;;;10.63;100.00
38852;BME280;24605;50.092;9.182;2023-10-19T01:36:07;154703.38;;;10.48;100.00
38852;BME280;24605;50.092;9.182;2023-10-19T01:38:38;154756.81;;;10.70;100.00
38852;BME280;24605;50.092;9.182;2023-10-19T01:41:07;154735.97;;;10.61;100.00
38852;BME280;24605;50.092;9.182;2023-10-19T01:43:39;154748.97;;;10.66;100.00
38852;BME280;24605;50.092;9.182;2023-10-19T01:46:06;154768.56;;;10.74;100.00
38852;BME280;24605;50.092;9.182;2023-10-19T01:48:37;154730.75;;;10.59;100.00
38852;BME280;24605;50.092;9.182;2023-10-19T01:51:06;154738.53;;;10.62;100.00
38852;BME280;24605;50.092;9.182;2023-10-19T01:53:32;154768.56;;;10.74;100.00
38852;BME280;24605;50.092;9.182;2023-10-19T01:56:02;154743.75;;;10.64;100.00
38852;BME280;24605;50.092;9.182;2023-10-19T01:58:30;154769.84;;;10.75;100.00
38852;BME280;24605;50.092;9.182;2023-10-19T02:01:02;154778.97;;;10.78;100.00
38852;BME280;24605;50.092;9.182;2023-10-19T02:03:31;154792.03;;;10.84;100.00
38852;BME280;24605;50.092;9.182;2023-10-19T02:05:58;154733.34;;;10.60;100.00
38852;BME280;24605;50.092;9.182;2023-10-19T02:08:24;154781.56;;;10.79;100.00
38852;BME280;24605;50.092;9.182;2023-10-19T02:10:52;154811.56;;;10.91;100.00
38852;BME280;24605;50.092;9.182;2023-10-19T02:13:20;154820.69;;;10.95;100.00
38852;BME280;24605;50.092;9.182;2023-10-19T02:15:46;154812.88;;;10.92;100.00
38852;BME280;24605;50.092;9.182;2023-10-19T02:18:15;154808.94;;;10.90;100.00
38852;BME280;24605;50.092;9.182;2023-10-19T02:20:42;154824.63;;;10.96;100.00
38852;BME280;24605;50.092;9.182;2023-10-19T02:23:13;154815.50;;;10.93;100.00
38852;BME280;24605;50.092;9.182;2023-10-19T02:25:39;154786.81;;;10.81;100.00
38852;BME280;24605;50.092;9.182;2023-10-19T02:28:07;154828.53;;;10.98;100.00
38852;BME280;24605;50.092;9.182;2023-10-19T02:30:35;154823.28;;;10.96;100.00
38852;BME280;24605;50.092;9.182;2023-10-19T02:33:03;154794.59;;;10.85;100.00
38852;BME280;24605;50.092;9.182;2023-10-19T02:35:31;154792.03;;;10.84;100.00
38852;BME280;24605;50.092;9.182;2023-10-19T02:37:57;154825.91;;;10.97;100.00
38852;BME280;24605;50.092;9.182;2023-10-19T02:40:23;154832.41;;;11.00;100.00
38852;BME280;24605;50.092;9.182;2023-10-19T02:42:50;154868.94;;;11.14;100.00
38852;BME280;24605;50.092;9.182;2023-10-19T02:45:16;154866.34;;;11.13;100.00
38852;BME280;24605;50.092;9.182;2023-10-19T02:47:45;154905.44;;;11.28;100.00
38852;BME280;24605;50.092;9.182;2023-10-19T02:50:11;154893.72;;;11.24;100.00
38852;BME280;24605;50.092;9.182;2023-10-19T02:52:42;154918.47;;;11.34;100.00
38852;BME280;24605;50.092;9.182;2023-10-19T02:55:08;154910.69;;;11.31;100.00
38852;BME280;24605;50.092;9.182;2023-10-19T02:57:36;154918.47;;;11.34;100.00
38852;BME280;24605;50.092;9.182;2023-10-19T03:00:02;154910.69;;;11.31;100.00
38852;BME280;24605;50.092;9.182;2023-10-19T03:02:33;154902.84;;;11.27;100.00
38852;BME280;24605;50.092;9.182;2023-10-19T03:05:03;154925.03;;;11.36;100.00
38852;BME280;24605;50.092;9.182;2023-10-19T03:07:35;154949.78;;;11.46;100.00
38852;BME280;24605;50.092;9.182;2023-10-19T03:10:05;154977.19;;;11.57;100.00
38852;BME280;24605;50.092;9.182;2023-10-19T03:12:31;154975.88;;;11.56;100.00
38852;BME280;24605;50.092;9.182;2023-10-19T03:14:58;154998.03;;;11.65;100.00
38852;BME280;24605;50.092;9.182;2023-10-19T03:17:25;154975.88;;;11.56;100.00
38852;BME280;24605;50.092;9.182;2023-10-19T03:19:54;155003.28;;;11.67;100.00
38852;BME280;24605;50.092;9.182;2023-10-19T03:22:22;155013.72;;;11.71;100.00
38852;BME280;24605;50.092;9.182;2023-10-19T03:24:48;154994.16;;;11.64;100.00
38852;BME280;24605;50.092;9.182;2023-10-19T03:27:23;155046.34;;;11.84;100.00
38852;BME280;24605;50.092;9.182;2023-10-19T03:29:51;155039.78;;;11.82;100.00
38852;BME280;24605;50.092;9.182;2023-10-19T03:32:19;155021.53;;;11.74;100.00
38852;BME280;24605;50.092;9.182;2023-10-19T03:34:47;155055.47;;;11.88;100.00
38852;BME280;24605;50.092;9.182;2023-10-19T03:37:15;155063.28;;;11.91;100.00
38852;BME280;24605;50.092;9.182;2023-10-19T03:39:45;155063.28;;;11.91;100.00
38852;BME280;24605;50.092;9.182;2023-10-19T03:42:12;154987.63;;;11.61;100.00
38852;BME280;24605;50.092;9.182;2023-10-19T03:44:39;155042.41;;;11.83;100.00
38852;BME280;24605;50.092;9.182;2023-10-19T03:47:11;155077.63;;;11.97;100.00
38852;BME280;24605;50.092;9.182;2023-10-19T03:49:39;155065.88;;;11.92;100.00
38852;BME280;24605;50.092;9.182;2023-10-19T03:52:07;155069.84;;;11.94;100.00
38852;BME280;24605;50.092;9.182;2023-10-19T03:54:48;155088.13;;;12.01;100.00
38852;BME280;24605;50.092;9.182;2023-10-19T03:57:17;155060.69;;;11.90;100.00
38852;BME280;24605;50.092;9.182;2023-10-19T03:59:48;155072.41;;;11.95;100.00
38852;BME280;24605;50.092;9.182;2023-10-19T04:02:19;155068.50;;;11.93;100.00
38852;BME280;24605;50.092;9.182;2023-10-19T04:04:46;154999.38;;;11.66;100.00
38852;BME280;24605;50.092;9.182;2023-10-19T04:07:14;155067.22;;;11.93;100.00
38852;BME280;24605;50.092;9.182;2023-10-19T04:09:47;155052.84;;;11.87;100.00
38852;BME280;24605;50.092;9.182;2023-10-19T04:12:25;155093.38;;;12.03;100.00
38852;BME280;24605;50.092;9.182;2023-10-19T04:14:54;155097.28;;;12.04;100.00
38852;BME280;24605;50.092;9.182;2023-10-19T04:17:20;155080.28;;;11.98;100.00
38852;BME280;24605;50.092;9.182;2023-10-19T04:19:49;155106.41;;;12.08;100.00
38852;BME280;24605;50.092;9.182;2023-10-19T04:22:16;155073.72;;;11.95;100.00
38852;BME280;24605;50.092;9.182;2023-10-19T04:24:50;155126.00;;;12.16;100.00
38852;BME280;24605;50.092;9.182;2023-10-19T04:27:16;155060.69;;;11.90;100.00
38852;BME280;24605;50.092;9.182;2023-10-19T04:29:47;155084.19;;;11.99;100.00
38852;BME280;24605;50.092;9.182;2023-10-19T04:32:14;155107.69;;;12.09;100.00
38852;BME280;24605;50.092;9.182;2023-10-19T04:34:48;155073.72;;;11.95;100.00
38852;BME280;24605;50.092;9.182;2023-10-19T04:37:15;155059.38;;;11.89;100.00
38852;BME280;24605;50.092;9.182;2023-10-19T04:39:43;155102.50;;;12.06;100.00
38852;BME280;24605;50.092;9.182;2023-10-19T04:42:11;155093.38;;;12.03;100.00
38852;BME280;24605;50.092;9.182;2023-10-19T04:44:39;155072.41;;;11.95;100.00
38852;BME280;24605;50.092;9.182;2023-10-19T04:47:05;155076.34;;;11.96;100.00
38852;BME280;24605;50.092;9.182;2023-10-19T04:49:32;155106.41;;;12.08;100.00
38852;BME280;24605;50.092;9.182;2023-10-19T04:51:59;155107.69;;;12.09;100.00
38852;BME280;24605;50.092;9.182;2023-10-19T04:54:25;155103.78;;;12.07;100.00
38852;BME280;24605;50.092;9.182;2023-10-19T04:56:52;155082.91;;;11.99;100.00
38852;BME280;24605;50.092;9.182;2023-10-19T04:59:22;155043.72;;;11.83;100.00
38852;BME280;24605;50.092;9.182;2023-10-19T05:01:48;155051.53;;;11.86;100.00
38852;BME280;24605;50.092;9.182;2023-10-19T05:04:15;155008.50;;;11.69;100.00
38852;BME280;24605;50.092;9.182;2023-10-19T05:06:42;154996.75;;;11.65;100.00
38852;BME280;24605;50.092;9.182;2023-10-19T05:09:09;154987.63;;;11.61;100.00
38852;BME280;24605;50.092;9.182;2023-10-19T05:11:37;154948.50;;;11.46;100.00
38852;BME280;24605;50.092;9.182;2023-10-19T05:14:05;154969.38;;;11.54;100.00
38852;BME280;24605;50.092;9.182;2023-10-19T05:16:32;154945.91;;;11.44;100.00
38852;BME280;24605;50.092;9.182;2023-10-19T05:18:59;155003.28;;;11.67;100.00
38852;BME280;24605;50.092;9.182;2023-10-19T05:21:25;154951.06;;;11.47;100.00
38852;BME280;24605;50.092;9.182;2023-10-19T05:23:52;154971.94;;;11.55;100.00
38852;BME280;24605;50.092;9.182;2023-10-19T05:26:18;154998.03;;;11.65;100.00
38852;BME280;24605;50.092;9.182;2023-10-19T05:28:45;155026.75;;;11.76;100.00
38852;BME280;24605;50.092;9.182;2023-10-19T05:31:12;155003.28;;;11.67;100.00
38852;BME280;24605;50.092;9.182;2023-10-19T05:33:41;155016.28;;;11.72;100.00
38852;BME280;24605;50.092;9.182;2023-10-19T05:36:08;155016.28;;;11.72;100.00
38852;BME280;24605;50.092;9.182;2023-10-19T05:38:34;154987.63;;;11.61;100.00
38852;BME280;24605;50.092;9.182;2023-10-19T05:41:01;154999.38;;;11.66;100.00
38852;BME280;24605;50.092;9.182;2023-10-19T05:43:28;155009.78;;;11.70;100.00
38852;BME280;24605;50.092;9.182;2023-10-19T05:45:55;155046.34;;;11.84;100.00
38852;BME280;24605;50.092;9.182;2023-10-19T05:48:22;155052.84;;;11.87;100.00
38852;BME280;24605;50.092;9.182;2023-10-19T05:50:50;155103.78;;;12.07;100.00
38852;BME280;24605;50.092;9.182;2023-10-19T05:53:17;155086.81;;;12.00;100.00
38852;BME280;24605;50.092;9.182;2023-10-19T05:55:44;155063.28;;;11.91;100.00
38852;BME280;24605;50.092;9.182;2023-10-19T05:58:11;155048.97;;;11.85;100.00
38852;BME280;24605;50.092;9.182;2023-10-19T06:01:18;155068.50;;;11.93;100.00
38852;BME280;24605;50.092;9.182;2023-10-19T06:03:45;155077.63;;;11.97;100.00
38852;BME280;24605;50.092;9.182;2023-10-19T06:06:11;155081.63;;;11.98;100.00
38852;BME280;24605;50.092;9.182;2023-10-19T06:08:39;155090.75;;;12.02;100.00
38852;BME280;24605;50.092;9.182;2023-10-19T06:11:06;155086.81;;;12.00;100.00
38852;BME280;24605;50.092;9.182;2023-10-19T06:13:32;155123.38;;;12.15;100.00
38852;BME280;24605;50.092;9.182;2023-10-19T06:15:59;155112.91;;;12.11;100.00
38852;BME280;24605;50.092;9.182;2023-10-19T06:18:27;155133.78;;;12.19;100.00
38852;BME280;24605;50.092;9.182;2023-10-19T06:20:54;155188.63;;;12.41;100.00
38852;BME280;24605;50.092;9.182;2023-10-19T06:23:21;155193.84;;;12.43;100.00
38852;BME280;24605;50.092;9.182;2023-10-19T06:25:48;155206.88;;;12.48;100.00
38852;BME280;24605;50.092;9.182;2023-10-19T06:28:16;155203.00;;;12.46;100.00
38852;BME280;24605;50.092;9.182;2023-10-19T06:30:43;155247.38;;;12.64;100.00
38852;BME280;24605;50.092;9.182;2023-10-19T06:33:13;155281.28;;;12.77;100.00
38852;BME280;24605;50.092;9.182;2023-10-19T06:35:41;155298.28;;;12.84;100.00
38852;BME280;24605;50.092;9.182;2023-10-19T06:38:07;155338.75;;;13.00;100.00
38852;BME280;24605;50.092;9.182;2023-10-19T06:40:35;155346.56;;;13.03;100.00
38852;BME280;24605;50.092;9.182;2023-10-19T06:43:02;155384.44;;;13.18;100.00
38852;BME280;24605;50.092;9.182;2023-10-19T06:45:30;155419.72;;;13.32;100.00
38852;BME280;24605;50.092;9.182;2023-10-19T06:47:57;155424.94;;;13.34;100.00
38852;BME280;24605;50.092;9.182;2023-10-19T06:50:26;155434.09;;;13.38;100.00
38852;BME280;24605;50.092;9.182;2023-10-19T06:52:54;155432.75;;;13.37;100.00
38852;BME280;24605;50.092;9.182;2023-10-19T06:55:20;155458.94;;;13.47;100.00
38852;BME280;24605;50.092;9.182;2023-10-19T06:57:49;155465.44;;;13.50;100.00
38852;BME280;24605;50.092;9.182;2023-10-19T07:00:17;155413.19;;;13.29;100.00
38852;BME280;24605;50.092;9.182;2023-10-19T07:02:45;155392.31;;;13.21;100.00
38852;BME280;24605;50.092;9.182;2023-10-19T07:05:12;155536.00;;;13.78;100.00
38852;BME280;24605;50.092;9.182;2023-10-19T07:07:44;155554.28;;;13.85;100.00
38852;BME280;24605;50.092;9.182;2023-10-19T07:10:13;155532.09;;;13.76;100.00
38852;BME280;24605;50.092;9.182;2023-10-19T07:12:41;155611.78;;;14.08;100.00
38852;BME280;24605;50.092;9.182;2023-10-19T07:15:08;155644.47;;;14.21;100.00
38852;BME280;24605;50.092;9.182;2023-10-19T07:17:39;155698.03;;;14.42;100.00
38852;BME280;24605;50.092;9.182;2023-10-19T07:20:07;155703.28;;;14.44;100.00
38852;BME280;24605;50.092;9.182;2023-10-19T07:22:34;155716.31;;;14.49;100.00
38852;BME280;24605;50.092;9.182;2023-10-19T07:25:04;155802.66;;;14.83;100.00
38852;BME280;24605;50.092;9.182;2023-10-19T07:27:32;155790.88;;;14.79;100.00
38852;BME280;24605;50.092;9.182;2023-10-19T07:29:59;155745.09;;;14.61;100.00
38852;BME280;24605;50.092;9.182;2023-10-19T07:32:25;155691.50;;;14.39;100.00
38852;BME280;24605;50.092;9.182;2023-10-19T07:34:53;155694.13;;;14.40;100.00
38852;BME280;24605;50.092;9.182;2023-10-19T07:37:20;155789.59;;;14.78;100.00
38852;BME280;24605;50.092;9.182;2023-10-19T07:39:48;155847.09;;;15.01;100.00
38852;BME280;24605;50.092;9.182;2023-10-19T07:42:15;155856.25;;;15.04;100.00
38852;BME280;24605;50.092;9.182;2023-10-19T07:44:43;155894.19;;;15.19;100.00
38852;BME280;24605;50.092;9.182;2023-10-19T07:47:11;155971.34;;;15.50;100.00
38852;BME280;24605;50.092;9.182;2023-10-19T07:49:38;156009.28;;;15.65;100.00
38852;BME280;24605;50.092;9.182;2023-10-19T07:52:05;155987.00;;;15.56;100.00
38852;BME280;24605;50.092;9.182;2023-10-19T07:54:32;156044.59;;;15.79;100.00
38852;BME280;24605;50.092;9.182;2023-10-19T07:56:58;156006.66;;;15.64;100.00
38852;BME280;24605;50.092;9.182;2023-10-19T07:59:28;156103.53;;;16.02;100.00
38852;BME280;24605;50.092;9.182;2023-10-19T08:01:56;156079.97;;;15.93;100.00
38852;BME280;24605;50.092;9.182;2023-10-19T08:04:22;156032.81;;;15.74;100.00
38852;BME280;24605;50.092;9.182;2023-10-19T08:06:50;156034.13;;;15.75;100.00
38852;BME280;24605;50.092;9.182;2023-10-19T08:09:17;156014.53;;;15.67;100.00
38852;BME280;24605;50.092;9.182;2023-10-19T08:11:48;156043.25;;;15.78;100.00
38852;BME280;24605;50.092;9.182;2023-10-19T08:14:14;156056.44;;;15.84;100.00
38852;BME280;24605;50.092;9.182;2023-10-19T08:16:40;156040.69;;;15.77;100.00
38852;BME280;24605;50.092;9.182;2023-10-19T08:19:10;156061.66;;;15.86;100.00
38852;BME280;24605;50.092;9.182;2023-10-19T08:21:37;156041.97;;;15.78;100.00
38852;BME280;24605;50.092;9.182;2023-10-19T08:24:04;156061.66;;;15.86;100.00
38852;BME280;24605;50.092;9.182;2023-10-19T08:26:31;156069.47;;;15.89;100.00
38852;BME280;24605;50.092;9.182;2023-10-19T08:28:57;156102.19;;;16.02;100.00
38852;BME280;24605;50.092;9.182;2023-10-19T08:31:24;156087.78;;;15.96;100.00
38852;BME280;24605;50.092;9.182;2023-10-19T08:33:50;156138.84;;;16.16;100.00
38852;BME280;24605;50.092;9.182;2023-10-19T08:36:19;156179.38;;;16.32;100.00
38852;BME280;24605;50.092;9.182;2023-10-19T08:38:45;156226.50;;;16.51;100.00
38852;BME280;24605;50.092;9.182;2023-10-19T08:41:12;156233.03;;;16.53;100.00
38852;BME280;24605;50.092;9.182;2023-10-19T08:43:40;156200.31;;;16.40;100.00
38852;BME280;24605;50.092;9.182;2023-10-19T08:46:07;156299.81;;;16.80;100.00
38852;BME280;24605;50.092;9.182;2023-10-19T08:48:33;156282.78;;;16.73;100.00
38852;BME280;24605;50.092;9.182;2023-10-19T08:51:02;156299.81;;;16.80;100.00
38852;BME280;24605;50.092;9.182;2023-10-19T08:53:31;156356.16;;;17.02;100.00
38852;BME280;24605;50.092;9.182;2023-10-19T08:56:05;156340.47;;;16.96;100.00
38852;BME280;24605;50.092;9.182;2023-10-19T08:58:32;156386.28;;;17.14;100.00
38852;BME280;24605;50.092;9.182;2023-10-19T09:00:58;156446.50;;;17.37;100.00
38852;BME280;24605;50.092;9.182;2023-10-19T09:03:31;156466.16;;;17.45;100.00
38852;BME280;24605;50.092;9.182;2023-10-19T09:06:00;156381.03;;;17.12;100.00
38852;BME280;24605;50.092;9.182;2023-10-19T09:08:27;156409.84;;;17.23;100.00
38852;BME280;24605;50.092;9.182;2023-10-19T09:11:07;156384.97;;;17.13;100.00
38852;BME280;24605;50.092;9.182;2023-10-19T09:13:43;156308.97;;;16.83;100.00
38852;BME280;24605;50.092;9.182;2023-10-19T09:16:12;156294.56;;;16.77;100.00
38852;BME280;24605;50.092;9.182;2023-10-19T09:18:39;156394.13;;;17.17;100.00
38852;BME280;24605;50.092;9.182;2023-10-19T09:21:07;156383.66;;;17.13;100.00
38852;BME280;24605;50.092;9.182;2023-10-19T09:23:37;156326.00;;;16.90;100.00
38852;BME280;24605;50.092;9.182;2023-10-19T09:26:04;156356.16;;;17.02;100.00
38852;BME280;24605;50.092;9.182;2023-10-19T09:28:34;156462.25;;;17.44;100.00
38852;BME280;24605;50.092;9.182;2023-10-19T09:31:01;156436.03;;;17.33;100.00
38852;BME280;24605;50.092;9.182;2023-10-19T09:33:28;156384.97;;;17.13;100.00
38852;BME280;24605;50.092;9.182;2023-10-19T09:35:59;156413.75;;;17.25;100.00
38852;BME280;24605;50.092;9.182;2023-10-19T09:38:26;156451.75;;;17.39;100.00
38852;BME280;24605;50.092;9.182;2023-10-19T09:40:54;156434.69;;;17.33;100.00
38852;BME280;24605;50.092;9.182;2023-10-19T09:43:24;156488.44;;;17.54;100.00
38852;BME280;24605;50.092;9.182;2023-10-19T09:46:00;156515.94;;;17.65;100.00
38852;BME280;24605;50.092;9.182;2023-10-19T09:48:27;156511.97;;;17.63;100.00
38852;BME280;24605;50.092;9.182;2023-10-19T09:50:55;156485.81;;;17.53;100.00
38852;BME280;24605;50.092;9.182;2023-10-19T09:53:25;156408.56;;;17.22;100.00
38852;BME280;24605;50.092;9.182;2023-10-19T09:55:54;156445.19;;;17.37;100.00
38852;BME280;24605;50.092;9.182;2023-10-19T09:58:24;156460.91;;;17.43;100.00
38852;BME280;24605;50.092;9.182;2023-10-19T10:00:52;156467.44;;;17.46;100.00
38852;BME280;24605;50.092;9.182;2023-10-19T10:03:45;156484.47;;;17.52;100.00
38852;BME280;24605;50.092;9.182;2023-10-19T10:06:12;156491.00;;;17.55;100.00
38852;BME280;24605;50.092;9.182;2023-10-19T10:08:41;156463.53;;;17.44;100.00
38852;BME280;24605;50.092;9.182;2023-10-19T10:11:17;156455.66;;;17.41;100.00
38852;BME280;24605;50.092;9.182;2023-10-19T10:13:44;156422.91;;;17.28;100.00
38852;BME280;24605;50.092;9.182;2023-10-19T10:16:13;156449.13;;;17.38;100.00
38852;BME280;24605;50.092;9.182;2023-10-19T10:18:41;156419.00;;;17.27;100.00
38852;BME280;24605;50.092;9.182;2023-10-19T10:21:12;156420.34;;;17.27;100.00
38852;BME280;24605;50.092;9.182;2023-10-19T10:23:40;156426.88;;;17.30;100.00
38852;BME280;24605;50.092;9.182;2023-10-19T10:26:08;156462.25;;;17.44;100.00
38852;BME280;24605;50.092;9.182;2023-10-19T10:28:35;156498.88;;;17.58;100.00
38852;BME280;24605;50.092;9.182;2023-10-19T10:31:15;156474.03;;;17.48;100.00
38852;BME280;24605;50.092;9.182;2023-10-19T10:33:44;156502.81;;;17.60;100.00
38852;BME280;24605;50.092;9.182;2023-10-19T10:36:15;156567.00;;;17.85;100.00
38852;BME280;24605;50.092;9.182;2023-10-19T10:38:43;156688.88;;;18.33;100.00
38852;BME280;24605;50.092;9.182;2023-10-19T10:41:10;156757.03;;;18.60;100.00
38852;BME280;24605;50.092;9.182;2023-10-19T10:43:50;156716.38;;;18.44;100.00
38852;BME280;24605;50.092;9.182;2023-10-19T10:46:18;156741.31;;;18.54;100.00
38852;BME280;24605;50.092;9.182;2023-10-19T10:48:45;156747.88;;;18.56;100.00
38852;BME280;24605;50.092;9.182;2023-10-19T10:51:19;156766.19;;;18.63;100.00
38852;BME280;24605;50.092;9.182;2023-10-19T10:53:47;156705.94;;;18.40;100.00
38852;BME280;24605;50.092;9.182;2023-10-19T10:56:14;156724.28;;;18.47;100.00
38852;BME280;24605;50.092;9.182;2023-10-19T10:58:41;156684.97;;;18.31;100.00
38852;BME280;24605;50.092;9.182;2023-10-19T11:01:07;156640.44;;;18.14;100.00
38852;BME280;24605;50.092;9.182;2023-10-19T11:03:35;156662.69;;;18.23;100.00
38852;BME280;24605;50.092;9.182;2023-10-19T11:06:05;156673.19;;;18.27;100.00
38852;BME280;24605;50.092;9.182;2023-10-19T11:08:35;156726.91;;;18.48;100.00
38852;BME280;24605;50.092;9.182;2023-10-19T11:11:03;156713.78;;;18.43;100.00
38852;BME280;24605;50.092;9.182;2023-10-19T11:13:30;156679.72;;;18.29;100.00
38852;BME280;24605;50.092;9.182;2023-10-19T11:16:02;156658.75;;;18.21;100.00
38852;BME280;24605;50.092;9.182;2023-10-19T11:18:30;156648.25;;;18.17;100.00
38852;BME280;24605;50.092;9.182;2023-10-19T11:20:58;156640.44;;;18.14;100.00
38852;BME280;24605;50.092;9.182;2023-10-19T11:23:41;156688.88;;;18.33;100.00
38852;BME280;24605;50.092;9.182;2023-10-19T11:26:09;156747.88;;;18.56;100.00
38852;BME280;24605;50.092;9.182;2023-10-19T11:28:36;156721.66;;;18.46;100.00
38852;BME280;24605;50.092;9.182;2023-10-19T11:31:15;156716.38;;;18.44;100.00
38852;BME280;24605;50.092;9.182;2023-10-19T11:33:43;156724.28;;;18.47;100.00
38852;BME280;24605;50.092;9.182;2023-10-19T11:36:10;156674.47;;;18.27;100.00
38852;BME280;24605;50.092;9.182;2023-10-19T11:38:40;156810.75;;;18.81;100.00
38852;BME280;24605;50.092;9.182;2023-10-19T11:41:08;156808.13;;;18.80;100.00
38852;BME280;24605;50.092;9.182;2023-10-19T11:43:34;156827.81;;;18.88;100.00
38852;BME280;24605;50.092;9.182;2023-10-19T11:46:01;156911.75;;;19.21;100.00
38852;BME280;24605;50.092;9.182;2023-10-19T11:48:29;156906.50;;;19.19;100.00
38852;BME280;24605;50.092;9.182;2023-10-19T11:50:56;156899.94;;;19.16;100.00
38852;BME280;24605;50.092;9.182;2023-10-19T11:53:22;156781.91;;;18.70;100.00
38852;BME280;24605;50.092;9.182;2023-10-19T11:55:50;156771.44;;;18.66;100.00
38852;BME280;24605;50.092;9.182;2023-10-19T11:58:17;156741.31;;;18.54;100.00
38852;BME280;24605;50.092;9.182;2023-10-19T12:00:44;156759.66;;;18.61;100.00
38852;BME280;24605;50.092;9.182;2023-10-19T12:03:12;156677.09;;;18.28;100.00
38852;BME280;24605;50.092;9.182;2023-10-19T12:05:38;156749.16;;;18.57;100.00
38852;BME280;24605;50.092;9.182;2023-10-19T12:08:05;156763.56;;;18.62;100.00
38852;BME280;24605;50.092;9.182;2023-10-19T12:10:32;156770.13;;;18.65;100.00
38852;BME280;24605;50.092;9.182;2023-10-19T12:13:02;156779.34;;;18.69;100.00
38852;BME280;24605;50.092;9.182;2023-10-19T12:15:30;156808.13;;;18.80;100.00
38852;BME280;24605;50.092;9.182;2023-10-19T12:17:57;156863.25;;;19.02;100.00
38852;BME280;24605;50.092;9.182;2023-10-19T12:20:24;156860.63;;;19.01;100.00
38852;BME280;24605;50.092;9.182;2023-10-19T12:22:51;156863.25;;;19.02;100.00
38852;BME280;24605;50.092;9.182;2023-10-19T12:25:19;156928.81;;;19.28;100.00
38852;BME280;24605;50.092;9.182;2023-10-19T12:27:46;156968.13;;;19.43;100.00
38852;BME280;24605;50.092;9.182;2023-10-19T12:30:13;156947.16;;;19.35;100.00
38852;BME280;24605;50.092;9.182;2023-10-19T12:32:45;156907.84;;;19.19;100.00
38852;BME280;24605;50.092;9.182;2023-10-19T12:35:14;156812.09;;;18.82;100.00
38852;BME280;24605;50.092;9.182;2023-10-19T12:37:43;156768.84;;;18.64;100.00
38852;BME280;24605;50.092;9.182;2023-10-19T12:40:16;156771.44;;;18.66;100.00
38852;BME280;24605;50.092;9.182;2023-10-19T12:42:53;156695.44;;;18.36;100.00
38852;BME280;24605;50.092;9.182;2023-10-19T12:45:21;156694.16;;;18.35;100.00
38852;BME280;24605;50.092;9.182;2023-10-19T12:47:48;156667.94;;;18.25;100.00